sensor_id;sensor_type;location;lat;lon;timestamp;pressure;altitude;pressure_sealevel;temperature;humidity
51067;BME280;37112;45.892;-123.962;2023-02-11T00:02:05;102231.16;;;10.52;77.42
51067;BME280;37112;45.892;-123.962;2023-02-11T00:04:18;102231.48;;;10.53;77.31
51067;BME280;37112;45.892;-123.962;2023-02-11T00:06:32;102234.04;;;10.51;77.54
51067;BME280;37112;45.892;-123.962;2023-02-11T00:08:46;102231.34;;;10.47;76.85
51067;BME280;37112;45.892;-123.962;2023-02-11T00:11:00;102232.18;;;10.44;76.80
51067;BME280;37112;45.892;-123.962;2023-02-11T00:13:13;102238.52;;;10.38;76.87
51067;BME280;37112;45.892;-123.962;2023-02-11T00:15:26;102236.66;;;10.31;76.60
51067;BME280;37112;45.892;-123.962;2023-02-11T00:17:39;102236.62;;;10.28;77.25
51067;BME280;37112;45.892;-123.962;2023-02-11T00:19:53;102237.44;;;10.25;76.62
51067;BME280;37112;45.892;-123.962;2023-02-11T00:22:07;102238.09;;;10.22;77.00
51067;BME280;37112;45.892;-123.962;2023-02-11T00:24:20;102237.42;;;10.20;76.65
51067;BME280;37112;45.892;-123.962;2023-02-11T00:26:35;102240.09;;;10.21;77.32
51067;BME280;37112;45.892;-123.962;2023-02-11T00:28:49;102238.58;;;10.18;76.65
51067;BME280;37112;45.892;-123.962;2023-02-11T00:31:02;102239.06;;;10.15;76.47
51067;BME280;37112;45.892;-123.962;2023-02-11T00:33:16;102241.53;;;10.12;76.70
51067;BME280;37112;45.892;-123.962;2023-02-11T00:35:29;102241.27;;;10.09;76.45
51067;BME280;37112;45.892;-123.962;2023-02-11T00:37:43;102239.84;;;10.05;75.87
51067;BME280;37112;45.892;-123.962;2023-02-11T00:39:56;102241.83;;;10.00;76.11
51067;BME280;37112;45.892;-123.962;2023-02-11T00:42:15;102243.70;;;9.98;75.64
51067;BME280;37112;45.892;-123.962;2023-02-11T00:44:29;102241.50;;;9.90;74.86
51067;BME280;37112;45.892;-123.962;2023-02-11T00:46:42;102245.73;;;9.86;75.64
51067;BME280;37112;45.892;-123.962;2023-02-11T00:48:56;102244.86;;;9.86;75.94
51067;BME280;37112;45.892;-123.962;2023-02-11T00:51:09;102244.00;;;9.86;76.10
51067;BME280;37112;45.892;-123.962;2023-02-11T00:53:22;102245.80;;;9.85;76.17
51067;BME280;37112;45.892;-123.962;2023-02-11T00:55:36;102248.94;;;9.82;76.08
51067;BME280;37112;45.892;-123.962;2023-02-11T00:57:49;102250.71;;;9.82;76.33
51067;BME280;37112;45.892;-123.962;2023-02-11T01:00:03;102253.63;;;9.81;76.34
51067;BME280;37112;45.892;-123.962;2023-02-11T01:02:16;102254.41;;;9.78;76.39
51067;BME280;37112;45.892;-123.962;2023-02-11T01:04:30;102248.83;;;9.76;76.48
51067;BME280;37112;45.892;-123.962;2023-02-11T01:06:44;102247.01;;;9.73;76.52
51067;BME280;37112;45.892;-123.962;2023-02-11T01:08:57;102249.65;;;9.69;76.29
51067;BME280;37112;45.892;-123.962;2023-02-11T01:11:14;102253.71;;;9.64;76.40
51067;BME280;37112;45.892;-123.962;2023-02-11T01:13:29;102255.67;;;9.60;76.36
51067;BME280;37112;45.892;-123.962;2023-02-11T01:15:44;102254.45;;;9.55;76.29
51067;BME280;37112;45.892;-123.962;2023-02-11T01:17:58;102261.70;;;9.51;76.61
51067;BME280;37112;45.892;-123.962;2023-02-11T01:20:15;102260.84;;;9.45;76.59
51067;BME280;37112;45.892;-123.962;2023-02-11T01:22:29;102262.29;;;9.40;76.63
51067;BME280;37112;45.892;-123.962;2023-02-11T01:24:44;102265.28;;;9.36;76.64
51067;BME280;37112;45.892;-123.962;2023-02-11T01:26:58;102263.94;;;9.33;76.83
51067;BME280;37112;45.892;-123.962;2023-02-11T01:29:11;102261.89;;;9.32;77.08
51067;BME280;37112;45.892;-123.962;2023-02-11T01:31:24;102260.38;;;9.30;77.14
51067;BME280;37112;45.892;-123.962;2023-02-11T01:33:38;102258.39;;;9.26;77.06
51067;BME280;37112;45.892;-123.962;2023-02-11T01:35:51;102259.98;;;9.21;77.03
51067;BME280;37112;45.892;-123.962;2023-02-11T01:38:04;102258.92;;;9.16;77.03
51067;BME280;37112;45.892;-123.962;2023-02-11T01:40:18;102262.67;;;9.10;77.17
51067;BME280;37112;45.892;-123.962;2023-02-11T01:42:32;102261.02;;;9.07;77.32
51067;BME280;37112;45.892;-123.962;2023-02-11T01:44:47;102264.88;;;9.04;77.37
51067;BME280;37112;45.892;-123.962;2023-02-11T01:47:02;102262.19;;;9.00;77.29
51067;BME280;37112;45.892;-123.962;2023-02-11T01:49:18;102262.02;;;8.95;77.36
51067;BME280;37112;45.892;-123.962;2023-02-11T01:51:35;102261.91;;;8.92;77.64
51067;BME280;37112;45.892;-123.962;2023-02-11T01:53:51;102262.55;;;8.90;77.65
51067;BME280;37112;45.892;-123.962;2023-02-11T01:56:22;102268.69;;;8.86;77.52
51067;BME280;37112;45.892;-123.962;2023-02-11T01:58:53;102271.70;;;8.81;77.61
51067;BME280;37112;45.892;-123.962;2023-02-11T02:01:13;102271.13;;;8.77;77.61
51067;BME280;37112;45.892;-123.962;2023-02-11T02:03:28;102269.71;;;8.73;77.65
51067;BME280;37112;45.892;-123.962;2023-02-11T02:05:46;102272.89;;;8.68;77.80
51067;BME280;37112;45.892;-123.962;2023-02-11T02:08:08;102267.64;;;8.66;77.92
51067;BME280;37112;45.892;-123.962;2023-02-11T02:10:27;102271.61;;;8.63;77.89
51067;BME280;37112;45.892;-123.962;2023-02-11T02:12:42;102272.11;;;8.59;77.90
51067;BME280;37112;45.892;-123.962;2023-02-11T02:15:19;102275.85;;;8.54;78.02
51067;BME280;37112;45.892;-123.962;2023-02-11T02:17:41;102277.61;;;8.49;77.99
51067;BME280;37112;45.892;-123.962;2023-02-11T02:20:21;102279.21;;;8.44;78.14
51067;BME280;37112;45.892;-123.962;2023-02-11T02:22:59;102280.63;;;8.38;78.24
51067;BME280;37112;45.892;-123.962;2023-02-11T02:25:34;102283.07;;;8.33;
51067;BME280;37112;45.892;-123.962;2023-02-11T02:27:57;102283.16;;;8.30;78.25
51067;BME280;37112;45.892;-123.962;2023-02-11T02:30:27;102284.23;;;8.25;78.34
51067;BME280;37112;45.892;-123.962;2023-02-11T02:33:01;102292.14;;;8.21;78.48
51067;BME280;37112;45.892;-123.962;2023-02-11T02:35:38;102295.29;;;8.17;78.71
51067;BME280;37112;45.892;-123.962;2023-02-11T02:37:58;102293.22;;;8.15;78.95
51067;BME280;37112;45.892;-123.962;2023-02-11T02:40:17;102296.29;;;8.13;78.93
51067;BME280;37112;45.892;-123.962;2023-02-11T02:42:32;102302.25;;;8.09;78.97
51067;BME280;37112;45.892;-123.962;2023-02-11T02:44:49;102305.00;;;8.06;79.00
51067;BME280;37112;45.892;-123.962;2023-02-11T02:47:03;102305.09;;;8.03;79.20
51067;BME280;37112;45.892;-123.962;2023-02-11T02:49:17;102306.56;;;8.01;79.15
51067;BME280;37112;45.892;-123.962;2023-02-11T02:54:32;102304.65;;;8.00;79.27
51067;BME280;37112;45.892;-123.962;2023-02-11T02:56:50;102306.10;;;7.99;79.40
51067;BME280;37112;45.892;-123.962;2023-02-11T02:59:27;102308.91;;;7.99;79.62
51067;BME280;37112;45.892;-123.962;2023-02-11T03:01:52;102311.91;;;8.00;79.78
51067;BME280;37112;45.892;-123.962;2023-02-11T03:04:15;102315.26;;;8.00;79.73
51067;BME280;37112;45.892;-123.962;2023-02-11T03:06:33;102312.95;;;8.00;79.95
51067;BME280;37112;45.892;-123.962;2023-02-11T03:08:52;102318.41;;;8.01;80.13
51067;BME280;37112;45.892;-123.962;2023-02-11T03:11:08;102316.13;;;8.00;80.12
51067;BME280;37112;45.892;-123.962;2023-02-11T03:13:24;102314.58;;;7.99;80.11
51067;BME280;37112;45.892;-123.962;2023-02-11T03:15:45;102313.05;;;7.97;80.15
51067;BME280;37112;45.892;-123.962;2023-02-11T03:18:00;102315.00;;;7.97;80.36
51067;BME280;37112;45.892;-123.962;2023-02-11T03:20:17;102313.45;;;7.96;80.29
51067;BME280;37112;45.892;-123.962;2023-02-11T03:22:36;102323.04;;;7.95;80.32
51067;BME280;37112;45.892;-123.962;2023-02-11T03:24:51;102328.57;;;7.93;80.43
51067;BME280;37112;45.892;-123.962;2023-02-11T03:27:10;102332.33;;;7.92;80.41
51067;BME280;37112;45.892;-123.962;2023-02-11T03:29:32;102330.98;;;7.90;80.57
51067;BME280;37112;45.892;-123.962;2023-02-11T03:31:53;102332.24;;;7.89;80.56
51067;BME280;37112;45.892;-123.962;2023-02-11T03:34:10;102333.90;;;7.87;80.66
51067;BME280;37112;45.892;-123.962;2023-02-11T03:36:37;102335.59;;;7.83;80.68
51067;BME280;37112;45.892;-123.962;2023-02-11T03:38:58;102338.85;;;7.81;80.87
51067;BME280;37112;45.892;-123.962;2023-02-11T03:41:12;102338.92;;;7.79;80.93
51067;BME280;37112;45.892;-123.962;2023-02-11T03:43:30;102339.45;;;7.79;81.02
51067;BME280;37112;45.892;-123.962;2023-02-11T03:45:45;102340.89;;;7.78;81.06
51067;BME280;37112;45.892;-123.962;2023-02-11T03:48:01;102338.45;;;7.76;81.09
51067;BME280;37112;45.892;-123.962;2023-02-11T03:50:16;102337.65;;;7.74;81.13
51067;BME280;37112;45.892;-123.962;2023-02-11T03:52:31;102335.48;;;7.70;80.81
51067;BME280;37112;45.892;-123.962;2023-02-11T03:54:45;102340.52;;;7.67;80.94
51067;BME280;37112;45.892;-123.962;2023-02-11T03:57:02;102342.93;;;7.63;80.96
51067;BME280;37112;45.892;-123.962;2023-02-11T03:59:16;102348.52;;;7.59;81.00
51067;BME280;37112;45.892;-123.962;2023-02-11T04:01:30;102348.08;;;7.56;80.96
51067;BME280;37112;45.892;-123.962;2023-02-11T04:03:43;102347.13;;;7.52;80.90
51067;BME280;37112;45.892;-123.962;2023-02-11T04:05:57;102346.12;;;7.50;81.11
51067;BME280;37112;45.892;-123.962;2023-02-11T04:08:10;102342.59;;;7.50;81.24
51067;BME280;37112;45.892;-123.962;2023-02-11T04:10:24;102342.09;;;7.49;81.11
51067;BME280;37112;45.892;-123.962;2023-02-11T04:12:36;102344.98;;;7.47;81.12
51067;BME280;37112;45.892;-123.962;2023-02-11T04:14:49;102348.23;;;7.45;80.83
51067;BME280;37112;45.892;-123.962;2023-02-11T04:17:02;102350.09;;;7.41;80.82
51067;BME280;37112;45.892;-123.962;2023-02-11T04:19:15;102352.30;;;7.38;80.80
51067;BME280;37112;45.892;-123.962;2023-02-11T04:21:30;102352.95;;;7.34;80.54
51067;BME280;37112;45.892;-123.962;2023-02-11T04:23:46;102349.20;;;7.29;80.46
51067;BME280;37112;45.892;-123.962;2023-02-11T04:25:59;102344.53;;;7.25;80.53
51067;BME280;37112;45.892;-123.962;2023-02-11T04:28:13;102342.58;;;7.19;80.36
51067;BME280;37112;45.892;-123.962;2023-02-11T04:30:27;102347.48;;;7.14;80.58
51067;BME280;37112;45.892;-123.962;2023-02-11T04:32:43;102353.62;;;7.10;80.58
51067;BME280;37112;45.892;-123.962;2023-02-11T04:34:56;102355.42;;;7.08;80.69
51067;BME280;37112;45.892;-123.962;2023-02-11T04:37:09;102351.14;;;7.04;80.78
51067;BME280;37112;45.892;-123.962;2023-02-11T04:39:22;102347.34;;;7.00;80.63
51067;BME280;37112;45.892;-123.962;2023-02-11T04:41:36;102344.64;;;6.95;80.61
51067;BME280;37112;45.892;-123.962;2023-02-11T04:43:51;102348.44;;;6.91;80.68
51067;BME280;37112;45.892;-123.962;2023-02-11T04:46:07;102351.35;;;6.89;80.76
51067;BME280;37112;45.892;-123.962;2023-02-11T04:48:23;102347.21;;;6.85;80.92
51067;BME280;37112;45.892;-123.962;2023-02-11T04:50:37;102346.98;;;6.80;80.62
51067;BME280;37112;45.892;-123.962;2023-02-11T04:52:51;102349.83;;;6.73;80.48
51067;BME280;37112;45.892;-123.962;2023-02-11T04:55:04;102358.05;;;6.68;80.65
51067;BME280;37112;45.892;-123.962;2023-02-11T04:57:18;102354.96;;;6.64;80.75
51067;BME280;37112;45.892;-123.962;2023-02-11T04:59:37;102357.70;;;6.61;80.74
51067;BME280;37112;45.892;-123.962;2023-02-11T05:01:51;102358.52;;;6.56;80.85
51067;BME280;37112;45.892;-123.962;2023-02-11T05:04:05;102366.70;;;6.54;81.08
51067;BME280;37112;45.892;-123.962;2023-02-11T05:06:19;102364.81;;;6.52;81.26
51067;BME280;37112;45.892;-123.962;2023-02-11T05:08:33;102366.25;;;6.50;81.43
51067;BME280;37112;45.892;-123.962;2023-02-11T05:10:49;102370.83;;;6.51;81.61
51067;BME280;37112;45.892;-123.962;2023-02-11T05:13:02;102373.70;;;6.49;81.71
51067;BME280;37112;45.892;-123.962;2023-02-11T05:15:16;102378.89;;;6.46;81.38
51067;BME280;37112;45.892;-123.962;2023-02-11T05:17:29;102384.64;;;6.42;81.19
51067;BME280;37112;45.892;-123.962;2023-02-11T05:19:43;102391.60;;;6.38;81.14
51067;BME280;37112;45.892;-123.962;2023-02-11T05:21:56;102396.14;;;6.32;81.09
51067;BME280;37112;45.892;-123.962;2023-02-11T05:24:12;102397.48;;;6.28;81.20
51067;BME280;37112;45.892;-123.962;2023-02-11T05:26:25;102402.85;;;6.25;81.13
51067;BME280;37112;45.892;-123.962;2023-02-11T05:28:40;102403.30;;;6.20;80.96
51067;BME280;37112;45.892;-123.962;2023-02-11T05:30:57;102406.17;;;6.18;81.08
51067;BME280;37112;45.892;-123.962;2023-02-11T05:33:11;102409.10;;;6.13;80.95
51067;BME280;37112;45.892;-123.962;2023-02-11T05:35:24;102410.92;;;6.11;81.27
51067;BME280;37112;45.892;-123.962;2023-02-11T05:37:37;102416.46;;;6.08;81.28
51067;BME280;37112;45.892;-123.962;2023-02-11T05:39:50;102422.33;;;6.05;81.46
51067;BME280;37112;45.892;-123.962;2023-02-11T05:42:04;102424.20;;;6.00;81.45
51067;BME280;37112;45.892;-123.962;2023-02-11T05:44:17;102425.02;;;5.96;81.50
51067;BME280;37112;45.892;-123.962;2023-02-11T05:46:30;102424.56;;;5.92;81.61
51067;BME280;37112;45.892;-123.962;2023-02-11T05:48:43;102422.48;;;5.88;81.45
51067;BME280;37112;45.892;-123.962;2023-02-11T05:50:56;102427.54;;;5.82;81.47
51067;BME280;37112;45.892;-123.962;2023-02-11T05:53:10;102431.14;;;5.79;81.44
51067;BME280;37112;45.892;-123.962;2023-02-11T05:55:24;102434.73;;;5.75;81.70
51067;BME280;37112;45.892;-123.962;2023-02-11T05:57:37;102438.30;;;5.73;81.81
51067;BME280;37112;45.892;-123.962;2023-02-11T05:59:50;102443.61;;;5.72;82.00
51067;BME280;37112;45.892;-123.962;2023-02-11T06:02:03;102440.82;;;5.71;82.16
51067;BME280;37112;45.892;-123.962;2023-02-11T06:04:20;102444.02;;;5.70;82.17
51067;BME280;37112;45.892;-123.962;2023-02-11T06:06:34;102449.15;;;5.68;82.30
51067;BME280;37112;45.892;-123.962;2023-02-11T06:08:48;102446.88;;;5.67;82.36
51067;BME280;37112;45.892;-123.962;2023-02-11T06:11:04;102450.80;;;5.65;82.17
51067;BME280;37112;45.892;-123.962;2023-02-11T06:13:20;102452.27;;;5.63;82.33
51067;BME280;37112;45.892;-123.962;2023-02-11T06:15:33;102453.33;;;5.62;82.47
51067;BME280;37112;45.892;-123.962;2023-02-11T06:17:46;102449.30;;;5.61;82.78
51067;BME280;37112;45.892;-123.962;2023-02-11T06:19:59;102452.29;;;5.60;82.81
51067;BME280;37112;45.892;-123.962;2023-02-11T06:22:12;102457.95;;;5.60;82.72
51067;BME280;37112;45.892;-123.962;2023-02-11T06:24:26;102456.05;;;5.57;82.69
51067;BME280;37112;45.892;-123.962;2023-02-11T06:26:59;102457.34;;;5.55;82.83
51067;BME280;37112;45.892;-123.962;2023-02-11T06:29:12;102459.14;;;5.52;82.89
51067;BME280;37112;45.892;-123.962;2023-02-11T06:31:25;102462.34;;;5.51;83.20
51067;BME280;37112;45.892;-123.962;2023-02-11T06:33:40;102464.24;;;5.52;83.42
51067;BME280;37112;45.892;-123.962;2023-02-11T06:35:53;102462.13;;;5.53;83.60
51067;BME280;37112;45.892;-123.962;2023-02-11T06:38:06;102459.28;;;5.55;83.58
51067;BME280;37112;45.892;-123.962;2023-02-11T06:40:20;102454.84;;;5.56;83.85
51067;BME280;37112;45.892;-123.962;2023-02-11T06:42:33;102460.43;;;5.58;84.06
51067;BME280;37112;45.892;-123.962;2023-02-11T06:44:48;102460.73;;;5.62;84.26
51067;BME280;37112;45.892;-123.962;2023-02-11T06:47:02;102464.19;;;5.65;84.41
51067;BME280;37112;45.892;-123.962;2023-02-11T06:49:15;102460.45;;;5.66;84.44
51067;BME280;37112;45.892;-123.962;2023-02-11T06:51:28;102463.61;;;5.68;84.42
51067;BME280;37112;45.892;-123.962;2023-02-11T06:53:44;102460.94;;;5.69;84.51
51067;BME280;37112;45.892;-123.962;2023-02-11T06:56:00;102464.95;;;5.71;84.66
51067;BME280;37112;45.892;-123.962;2023-02-11T06:58:13;102467.02;;;5.73;84.71
51067;BME280;37112;45.892;-123.962;2023-02-11T07:00:26;102468.58;;;5.75;84.75
51067;BME280;37112;45.892;-123.962;2023-02-11T07:02:39;102466.98;;;5.75;84.85
51067;BME280;37112;45.892;-123.962;2023-02-11T07:04:52;102462.39;;;5.77;84.90
51067;BME280;37112;45.892;-123.962;2023-02-11T07:07:06;102462.02;;;5.77;84.76
51067;BME280;37112;45.892;-123.962;2023-02-11T07:09:19;102462.54;;;5.78;84.97
51067;BME280;37112;45.892;-123.962;2023-02-11T07:11:32;102462.34;;;5.79;85.05
51067;BME280;37112;45.892;-123.962;2023-02-11T07:13:46;102460.20;;;5.79;84.96
51067;BME280;37112;45.892;-123.962;2023-02-11T07:16:00;102459.30;;;5.81;85.11
51067;BME280;37112;45.892;-123.962;2023-02-11T07:18:15;102461.04;;;5.81;85.18
51067;BME280;37112;45.892;-123.962;2023-02-11T07:20:29;102461.73;;;5.82;85.23
51067;BME280;37112;45.892;-123.962;2023-02-11T07:22:42;102465.60;;;5.82;85.38
51067;BME280;37112;45.892;-123.962;2023-02-11T07:24:54;102463.29;;;5.83;85.24
51067;BME280;37112;45.892;-123.962;2023-02-11T07:27:07;102457.11;;;5.84;85.36
51067;BME280;37112;45.892;-123.962;2023-02-11T07:29:21;102455.86;;;5.85;85.49
51067;BME280;37112;45.892;-123.962;2023-02-11T07:31:35;102453.20;;;5.86;85.62
51067;BME280;37112;45.892;-123.962;2023-02-11T07:33:48;102454.94;;;5.87;85.58
51067;BME280;37112;45.892;-123.962;2023-02-11T07:36:05;102460.54;;;5.89;85.57
51067;BME280;37112;45.892;-123.962;2023-02-11T07:38:18;102461.75;;;5.91;85.68
51067;BME280;37112;45.892;-123.962;2023-02-11T07:40:32;102458.77;;;5.91;85.49
51067;BME280;37112;45.892;-123.962;2023-02-11T07:42:45;102453.82;;;5.90;85.54
51067;BME280;37112;45.892;-123.962;2023-02-11T07:44:58;102456.52;;;5.87;85.24
51067;BME280;37112;45.892;-123.962;2023-02-11T07:47:11;102458.52;;;5.85;85.19
51067;BME280;37112;45.892;-123.962;2023-02-11T07:49:24;102458.54;;;5.83;85.18
51067;BME280;37112;45.892;-123.962;2023-02-11T07:51:37;102449.61;;;5.80;85.07
51067;BME280;37112;45.892;-123.962;2023-02-11T07:53:50;102453.71;;;5.78;85.17
51067;BME280;37112;45.892;-123.962;2023-02-11T07:56:05;102449.88;;;5.75;85.00
51067;BME280;37112;45.892;-123.962;2023-02-11T07:58:19;102456.48;;;5.72;84.94
51067;BME280;37112;45.892;-123.962;2023-02-11T08:00:32;102455.29;;;5.70;85.09
51067;BME280;37112;45.892;-123.962;2023-02-11T08:02:45;102453.73;;;5.69;85.21
51067;BME280;37112;45.892;-123.962;2023-02-11T08:04:58;102456.03;;;5.68;85.38
51067;BME280;37112;45.892;-123.962;2023-02-11T08:07:13;102458.66;;;5.68;85.23
51067;BME280;37112;45.892;-123.962;2023-02-11T08:09:26;102459.77;;;5.66;85.14
51067;BME280;37112;45.892;-123.962;2023-02-11T08:11:42;102454.69;;;5.64;85.30
51067;BME280;37112;45.892;-123.962;2023-02-11T08:13:57;102457.55;;;5.63;85.25
51067;BME280;37112;45.892;-123.962;2023-02-11T08:16:10;102453.70;;;5.60;85.27
51067;BME280;37112;45.892;-123.962;2023-02-11T08:18:29;102454.64;;;5.57;85.21
51067;BME280;37112;45.892;-123.962;2023-02-11T08:20:42;102456.98;;;5.55;85.18
51067;BME280;37112;45.892;-123.962;2023-02-11T08:22:55;102456.15;;;5.52;84.96
51067;BME280;37112;45.892;-123.962;2023-02-11T08:25:10;102454.46;;;5.48;84.91
51067;BME280;37112;45.892;-123.962;2023-02-11T08:27:24;102455.05;;;5.45;84.99
51067;BME280;37112;45.892;-123.962;2023-02-11T08:29:38;102454.40;;;5.42;84.72
51067;BME280;37112;45.892;-123.962;2023-02-11T08:31:52;102453.23;;;5.39;84.88
51067;BME280;37112;45.892;-123.962;2023-02-11T08:34:05;102451.35;;;5.35;84.72
51067;BME280;37112;45.892;-123.962;2023-02-11T08:36:20;102446.16;;;5.31;84.68
51067;BME280;37112;45.892;-123.962;2023-02-11T08:38:33;102444.27;;;5.27;84.60
51067;BME280;37112;45.892;-123.962;2023-02-11T08:40:46;102442.58;;;5.24;84.68
51067;BME280;37112;45.892;-123.962;2023-02-11T08:43:00;102438.59;;;5.20;84.52
51067;BME280;37112;45.892;-123.962;2023-02-11T08:45:16;102436.90;;;5.16;84.47
51067;BME280;37112;45.892;-123.962;2023-02-11T08:47:29;102442.60;;;5.13;84.40
51067;BME280;37112;45.892;-123.962;2023-02-11T08:49:42;102447.05;;;5.09;84.59
51067;BME280;37112;45.892;-123.962;2023-02-11T08:51:55;102455.91;;;5.07;84.62
51067;BME280;37112;45.892;-123.962;2023-02-11T08:54:14;102458.39;;;5.05;84.65
51067;BME280;37112;45.892;-123.962;2023-02-11T08:56:27;102461.80;;;5.01;84.55
51067;BME280;37112;45.892;-123.962;2023-02-11T08:58:41;102469.06;;;4.99;84.58
51067;BME280;37112;45.892;-123.962;2023-02-11T09:00:54;102471.40;;;4.96;84.46
51067;BME280;37112;45.892;-123.962;2023-02-11T09:03:09;102476.59;;;4.91;84.39
51067;BME280;37112;45.892;-123.962;2023-02-11T09:05:22;102475.56;;;4.88;84.48
51067;BME280;37112;45.892;-123.962;2023-02-11T09:07:54;102486.02;;;4.87;84.44
51067;BME280;37112;45.892;-123.962;2023-02-11T09:10:09;102494.32;;;4.83;84.51
51067;BME280;37112;45.892;-123.962;2023-02-11T09:12:22;102496.42;;;4.82;84.82
51067;BME280;37112;45.892;-123.962;2023-02-11T09:14:35;102495.23;;;4.80;84.79
51067;BME280;37112;45.892;-123.962;2023-02-11T09:16:49;102497.95;;;4.76;84.79
51067;BME280;37112;45.892;-123.962;2023-02-11T09:19:03;102494.45;;;4.75;85.30
51067;BME280;37112;45.892;-123.962;2023-02-11T09:21:17;102490.55;;;4.76;85.32
51067;BME280;37112;45.892;-123.962;2023-02-11T09:23:31;102488.61;;;4.76;85.53
51067;BME280;37112;45.892;-123.962;2023-02-11T09:25:44;102492.29;;;4.78;85.79
51067;BME280;37112;45.892;-123.962;2023-02-11T09:27:58;102492.61;;;4.79;85.82
51067;BME280;37112;45.892;-123.962;2023-02-11T09:30:15;102495.42;;;4.79;85.73
51067;BME280;37112;45.892;-123.962;2023-02-11T09:32:28;102490.52;;;4.78;85.67
51067;BME280;37112;45.892;-123.962;2023-02-11T09:34:41;102488.44;;;4.76;85.44
51067;BME280;37112;45.892;-123.962;2023-02-11T09:36:54;102493.75;;;4.72;85.19
51067;BME280;37112;45.892;-123.962;2023-02-11T09:39:10;102496.45;;;4.70;85.23
51067;BME280;37112;45.892;-123.962;2023-02-11T09:41:37;102502.13;;;4.66;85.17
51067;BME280;37112;45.892;-123.962;2023-02-11T09:43:53;102504.10;;;4.63;85.08
51067;BME280;37112;45.892;-123.962;2023-02-11T09:46:08;102512.96;;;4.59;84.93
51067;BME280;37112;45.892;-123.962;2023-02-11T09:48:25;102516.18;;;4.55;84.95
51067;BME280;37112;45.892;-123.962;2023-02-11T09:50:41;102517.11;;;4.51;84.88
51067;BME280;37112;45.892;-123.962;2023-02-11T09:52:58;102512.05;;;4.47;84.89
51067;BME280;37112;45.892;-123.962;2023-02-11T09:55:20;102515.46;;;4.43;84.82
51067;BME280;37112;45.892;-123.962;2023-02-11T09:57:35;102510.09;;;4.38;84.88
51067;BME280;37112;45.892;-123.962;2023-02-11T09:59:48;102514.34;;;4.35;85.00
51067;BME280;37112;45.892;-123.962;2023-02-11T10:02:05;102509.46;;;4.32;84.91
51067;BME280;37112;45.892;-123.962;2023-02-11T10:04:36;102511.61;;;4.29;85.03
51067;BME280;37112;45.892;-123.962;2023-02-11T10:06:56;102514.80;;;4.27;85.12
51067;BME280;37112;45.892;-123.962;2023-02-11T10:09:30;102525.71;;;4.25;85.10
51067;BME280;37112;45.892;-123.962;2023-02-11T10:11:54;102529.43;;;4.24;85.29
51067;BME280;37112;45.892;-123.962;2023-02-11T10:14:28;102526.13;;;4.22;85.26
51067;BME280;37112;45.892;-123.962;2023-02-11T10:16:57;102519.83;;;4.18;85.15
51067;BME280;37112;45.892;-123.962;2023-02-11T10:19:37;102516.37;;;4.13;85.08
51067;BME280;37112;45.892;-123.962;2023-02-11T10:22:02;102515.88;;;4.10;85.16
51067;BME280;37112;45.892;-123.962;2023-02-11T10:24:19;102510.45;;;4.09;85.18
51067;BME280;37112;45.892;-123.962;2023-02-11T10:26:32;102518.73;;;4.07;85.37
51067;BME280;37112;45.892;-123.962;2023-02-11T10:28:49;102529.66;;;4.05;85.60
51067;BME280;37112;45.892;-123.962;2023-02-11T10:31:06;102537.92;;;4.03;85.59
51067;BME280;37112;45.892;-123.962;2023-02-11T10:33:27;102540.23;;;4.02;85.72
51067;BME280;37112;45.892;-123.962;2023-02-11T10:35:42;102544.46;;;4.01;85.73
51067;BME280;37112;45.892;-123.962;2023-02-11T10:37:55;102535.02;;;3.97;85.47
51067;BME280;37112;45.892;-123.962;2023-02-11T10:40:14;102524.67;;;3.93;85.38
51067;BME280;37112;45.892;-123.962;2023-02-11T10:42:28;102526.64;;;3.92;85.67
51067;BME280;37112;45.892;-123.962;2023-02-11T10:44:45;102525.06;;;3.91;85.73
51067;BME280;37112;45.892;-123.962;2023-02-11T10:47:14;102520.15;;;3.91;85.74
51067;BME280;37112;45.892;-123.962;2023-02-11T10:49:38;102520.71;;;3.87;85.84
51067;BME280;37112;45.892;-123.962;2023-02-11T10:51:53;102523.20;;;3.85;85.78
51067;BME280;37112;45.892;-123.962;2023-02-11T10:54:23;102522.00;;;3.82;86.02
51067;BME280;37112;45.892;-123.962;2023-02-11T10:56:38;102517.63;;;3.82;85.99
51067;BME280;37112;45.892;-123.962;2023-02-11T10:59:00;102515.34;;;3.81;86.24
51067;BME280;37112;45.892;-123.962;2023-02-11T11:01:15;102517.27;;;3.82;86.46
51067;BME280;37112;45.892;-123.962;2023-02-11T11:03:36;102517.77;;;3.83;86.61
51067;BME280;37112;45.892;-123.962;2023-02-11T11:05:51;102517.06;;;3.84;86.46
51067;BME280;37112;45.892;-123.962;2023-02-11T11:08:07;102524.07;;;3.85;86.55
51067;BME280;37112;45.892;-123.962;2023-02-11T11:10:31;102530.21;;;3.86;86.74
51067;BME280;37112;45.892;-123.962;2023-02-11T11:12:50;102528.64;;;3.85;86.79
51067;BME280;37112;45.892;-123.962;2023-02-11T11:15:15;102528.81;;;3.85;86.63
51067;BME280;37112;45.892;-123.962;2023-02-11T11:17:35;102530.09;;;3.81;86.28
51067;BME280;37112;45.892;-123.962;2023-02-11T11:19:48;102528.70;;;3.79;86.44
51067;BME280;37112;45.892;-123.962;2023-02-11T11:22:03;102532.06;;;3.78;86.56
51067;BME280;37112;45.892;-123.962;2023-02-11T11:24:20;102539.10;;;3.77;86.53
51067;BME280;37112;45.892;-123.962;2023-02-11T11:26:44;102536.84;;;3.73;86.44
51067;BME280;37112;45.892;-123.962;2023-02-11T11:29:01;102537.92;;;3.71;86.29
51067;BME280;37112;45.892;-123.962;2023-02-11T11:31:21;102543.75;;;3.68;86.32
51067;BME280;37112;45.892;-123.962;2023-02-11T11:33:39;102544.11;;;3.67;86.32
51067;BME280;37112;45.892;-123.962;2023-02-11T11:36:02;102548.17;;;3.64;86.33
51067;BME280;37112;45.892;-123.962;2023-02-11T11:38:17;102540.46;;;3.62;86.40